AirNav   Everest Fuels
 
 1804 users online  

CT42 Wings Ago Airstrip
Goshen, Connecticut, USA

GOING TO GOSHEN?


FAA INFORMATION EFFECTIVE 01 DECEMBER 2022

Location

FAA Identifier: CT42
Lat/Long: 41-51-14.2800N 073-16-32.3100W
41-51.238000N 073-16.538500W
41.8539667,-73.2756417
(estimated)
Elevation: 1585 ft. / 483 m (estimated)
Variation: 14W (1985)
From city: 3 miles NW of GOSHEN, CT
Time zone: UTC -5 (UTC -4 during Daylight Saving Time)
Zip code: 06756

Airport Operations

Airport use: Private use. Permission required prior to landing
Activation date: 09/1953
Control tower: no
ARTCC: BOSTON CENTER
FSS: BRIDGEPORT FLIGHT SERVICE STATION
Attendance: UNATNDD
Wind indicator: yes
Segmented circle: no

Nearby radio navigation aids

VOR radial/distance  VOR name  Freq  Var
PWLr083/15.4PAWLING VOR/DME114.3012W
IGNr077/27.0KINGSTON VOR/DME117.6012W
CTRr222/30.0CHESTER VOR/DME115.1013W
BAFr247/31.0BARNES VORTAC113.0014W
HFDr304/35.0HARTFORD VOR/DME114.9013W
CMKr034/37.1CARMEL VOR/DME116.6012W

 
NDB name  Hdg/Dist  Freq  Var  ID
PHILMONT153/31.227213WPFH .--. ..-. ....
STANWYCK072/39.626112WSKU ... -.- ..-

Airport Services

Airframe service: NONE
Powerplant service: NONE

Runway Information

Runway 18/36

Dimensions: 1600 x 40 ft. / 488 x 12 m
Surface: turf
Operational restrictions: TKOF N/S ONLY AND LAND S/N ONLY.
RUNWAY 18  RUNWAY 36
Traffic pattern: leftleft
Obstructions: trees40 ft. trees

Airport Ownership and Management from official FAA records

Ownership: Privately-owned
Owner: WINGS AGO, INC.
161 BARTHOLOMEW HILL ROAD
GOSHEN, CT 06756
Phone (860) 782-1077
Manager: PETER BUJNOWSKI
161 BARTHOLOMEW HILL ROAD
GOSHEN, CT 06756
Phone (860) 782-1077

Airport Operational Statistics

Aircraft based on the field: 2
Single engine airplanes: 2
    

Additional Remarks

FOR CD CTC YANKEE APCH AT 860-386-3597

Instrument Procedures

There are no published instrument procedures at CT42.

Some nearby airports with instrument procedures:

KGBR - Walter J Koladza Airport (21 nm N)
4B8 - Robertson Field Airport (21 nm SE)
44N - Sky Acres Airport (22 nm SW)
KOXC - Waterbury-Oxford Airport (23 nm S)
KBDL - Bradley International Airport (27 nm E)
 
Loc | Ops | Rwys | IFR | FBO | Links
Com | Nav | Svcs | Stats | Notes

Silver City Flying Club
 
Area around CT42 (Wings Ago Airstrip)
 
Road maps at: MapQuest Bing Google
 
Aerial photo
No photo
 
Sectional chart

 
Airport distance calculator
Flying to Wings Ago Airstrip? Find the distance to fly.

From to CT42

Sunrise and sunset
Times for 08-Dec-2022
 Local
(UTC-5)
 Zulu
(UTC)
Morning civil twilight06:3811:38
Sunrise07:0912:09
Sunset16:2121:21
Evening civil twilight16:5221:52

Current date and time
Zulu (UTC)  08-Dec-2022 16:40:50
Local (UTC-5)  08-Dec-2022 11:40:50
 
METAR
KOXC 
24nm S 
081551Z 32013G18KT 10SM FEW033 09/02 A3020 RMK AO2 SLP240 T00890017
KBDL 
27nm E 
081551Z 30011G16KT 10SM FEW030 SCT040 SCT250 11/03 A3020 RMK AO2 SLP228 T01060028
KMMK 
28nm SE 
081553Z AUTO 34016G22KT 10SM CLR 11/01 A3020 RMK AO2 SLP227 T01110006
KHFD 
29nm E 
081553Z 35008KT 10SM BKN041 11/02 A3021 RMK AO2 SLP229 T01060022
KPOU 
30nm SW 
081553Z 00000KT 10SM CLR 10/04 A3022 RMK AO2 SLP230 T01000044
KDXR 
31nm S 
081553Z 32007KT 10SM CLR 10/02 A3021 RMK AO2 SLP231 T01000017
KBAF 
31nm NE 
081553Z 35007KT 10SM BKN037 09/02 A3020 RMK AO2 SLP229 T00940017
KPSF 
35nm N 
081621Z AUTO 30010KT 10SM SCT028 BKN037 OVC055 08/01 A3018 RMK AO2 T00780006
KCEF 
40nm NE 
081555Z 34011KT 10SM BKN041 09/00 A3018 RMK AO2A SLP227 T00920001
KHVN 
40nm SE 
081553Z 01012KT 10SM FEW038 SCT250 12/03 A3019 RMK AO2 SLP223 T01220033
TAF
KBDL 
27nm E 
081444Z 0815/0918 34009KT P6SM FEW200 FM081600 33011G21KT P6SM FEW250 FM082200 34009KT P6SM FEW250
KPOU 
30nm SW 
081148Z 0812/0912 VRB03KT P6SM FEW040 FEW250 TEMPO 0812/0814 2SM BR FM081500 34010KT P6SM SCT040 FM090300 36004KT P6SM SKC
KBAF 
31nm NE 
081120Z 0812/0912 33008KT P6SM FEW200 FM081500 33013G19KT P6SM BKN250 FM082200 34008KT P6SM SKC
NOTAMs
Click for the latest NOTAMs
NOTAMs are issued by the DoD/FAA and will open in a separate window not controlled by AirNav.

 

 
 

Would you like to see your business listed on this page?

 If your business provides an interesting product or service to pilots, flight crews, aircraft, or users of the Wings Ago Airstrip, you should consider listing it here.  To start the listing process, click on the button below
 
Add a business
 

Other Pages about Wings Ago Airstrip

Update a link
 
Copyright © AirNav, LLC. All rights reserved. Privacy Policy  Contact